createdAt,value
2019-05-25T00:01:20.372Z,22.90
2019-05-25T00:03:49.039Z,22.90
2019-05-25T00:06:17.778Z,22.90
2019-05-25T00:08:46.422Z,22.90
2019-05-25T00:11:15.107Z,22.90
2019-05-25T00:13:43.825Z,22.90
2019-05-25T00:16:12.504Z,22.90
2019-05-25T00:18:41.167Z,22.90
2019-05-25T00:21:13.209Z,22.90
2019-05-25T00:23:40.222Z,22.90
2019-05-25T00:26:08.879Z,22.90
2019-05-25T00:28:37.524Z,22.90
2019-05-25T00:31:06.319Z,22.90
2019-05-25T00:33:35.030Z,22.90
2019-05-25T00:36:03.807Z,22.90
2019-05-25T00:38:32.830Z,22.90
2019-05-25T00:41:01.474Z,22.80
2019-05-25T00:43:30.134Z,22.80
2019-05-25T00:45:58.802Z,22.80
2019-05-25T00:48:27.459Z,22.80
2019-05-25T00:50:56.143Z,22.80
2019-05-25T00:53:24.881Z,22.80
2019-05-25T00:55:53.515Z,22.80
2019-05-25T00:58:22.181Z,22.80
2019-05-25T01:00:50.900Z,22.80
2019-05-25T01:03:19.671Z,22.80
2019-05-25T01:05:48.354Z,22.80
2019-05-25T01:08:17.019Z,22.80
2019-05-25T01:10:45.683Z,22.80
2019-05-25T01:13:14.324Z,22.80
2019-05-25T01:15:42.984Z,22.70
2019-05-25T01:18:11.722Z,22.70
2019-05-25T01:20:40.386Z,22.80
2019-05-25T01:23:09.043Z,22.70
2019-05-25T01:25:37.699Z,22.80
2019-05-25T01:28:06.363Z,22.70
2019-05-25T01:30:35.033Z,22.70
2019-05-25T01:33:03.779Z,22.70
2019-05-25T01:35:32.506Z,22.70
2019-05-25T01:38:01.177Z,22.70
2019-05-25T01:40:29.804Z,22.70
2019-05-25T01:42:58.771Z,22.70
2019-05-25T01:45:27.442Z,22.70
2019-05-25T01:47:56.117Z,22.70
2019-05-25T01:50:24.766Z,22.70
2019-05-25T01:52:53.403Z,22.70
2019-05-25T01:55:22.097Z,22.70
2019-05-25T01:57:50.726Z,22.70
2019-05-25T02:00:19.418Z,22.70
2019-05-25T02:02:48.112Z,22.70
2019-05-25T02:05:16.925Z,22.70
2019-05-25T02:07:45.590Z,22.70
2019-05-25T02:10:14.244Z,22.70
2019-05-25T02:12:42.899Z,22.70
2019-05-25T02:15:11.560Z,22.70
2019-05-25T02:17:40.245Z,22.70
2019-05-25T02:20:08.891Z,22.60
2019-05-25T02:22:37.571Z,22.60
2019-05-25T02:25:17.077Z,22.60
2019-05-25T02:27:36.934Z,22.60
2019-05-25T02:30:06.277Z,22.60
2019-05-25T02:32:34.920Z,22.60
2019-05-25T02:35:03.607Z,22.60
2019-05-25T02:37:32.296Z,22.60
2019-05-25T02:40:00.927Z,22.60
2019-05-25T02:42:29.607Z,22.60
2019-05-25T02:44:58.281Z,22.60
2019-05-25T02:47:26.999Z,22.60
2019-05-25T02:49:56.047Z,22.60
2019-05-25T02:52:24.684Z,22.60
2019-05-25T02:54:53.320Z,22.60
2019-05-25T02:57:21.975Z,22.60
2019-05-25T02:59:50.615Z,22.60
2019-05-25T03:02:19.284Z,22.50
2019-05-25T03:04:47.937Z,22.50
2019-05-25T03:07:16.632Z,22.50
2019-05-25T03:09:45.287Z,22.50
2019-05-25T03:12:13.948Z,22.50
2019-05-25T03:14:42.615Z,22.50
2019-05-25T03:17:11.286Z,22.50
2019-05-25T03:19:39.929Z,22.50
2019-05-25T03:22:08.583Z,22.50
2019-05-25T03:24:37.931Z,22.50
2019-05-25T03:27:06.609Z,22.50
2019-05-25T03:29:35.283Z,22.50
2019-05-25T03:32:03.917Z,22.50
2019-05-25T03:34:32.584Z,22.50
2019-05-25T03:37:01.265Z,22.50
2019-05-25T03:39:29.925Z,22.50
2019-05-25T03:41:58.554Z,22.50
2019-05-25T03:44:27.228Z,22.40
2019-05-25T03:46:55.876Z,22.40
2019-05-25T03:49:24.546Z,22.50
2019-05-25T03:51:53.209Z,22.50
2019-05-25T03:54:24.258Z,22.50
2019-05-25T03:56:53.598Z,22.50
2019-05-25T03:59:22.247Z,22.50
2019-05-25T04:01:50.981Z,22.50
2019-05-25T04:04:19.709Z,22.50
2019-05-25T04:06:48.351Z,22.50
2019-05-25T04:09:17.008Z,22.40
2019-05-25T04:11:45.662Z,22.40
2019-05-25T04:14:14.297Z,22.40
2019-05-25T04:16:42.971Z,22.40
2019-05-25T04:19:12.267Z,22.40
2019-05-25T04:21:40.904Z,22.50
2019-05-25T04:24:11.669Z,22.40
2019-05-25T04:26:40.324Z,22.50
2019-05-25T04:29:08.996Z,22.40
2019-05-25T04:31:37.636Z,22.40
2019-05-25T04:34:06.293Z,22.40
2019-05-25T04:36:34.954Z,22.40
2019-05-25T04:39:04.692Z,22.40
2019-05-25T04:41:33.427Z,22.40
2019-05-25T04:44:02.114Z,22.40
2019-05-25T04:46:30.751Z,22.40
2019-05-25T04:48:59.453Z,22.40
2019-05-25T04:51:28.125Z,22.40
2019-05-25T04:53:56.763Z,22.40
2019-05-25T04:56:38.880Z,22.40
2019-05-25T04:58:56.483Z,22.40
2019-05-25T05:01:25.170Z,22.40
2019-05-25T05:03:53.840Z,22.40
2019-05-25T05:06:22.581Z,22.40
2019-05-25T05:08:51.307Z,22.40
2019-05-25T05:11:20.461Z,22.40
2019-05-25T05:13:49.108Z,22.40
2019-05-25T05:16:17.777Z,22.40
2019-05-25T05:18:46.465Z,22.40
2019-05-25T05:21:15.112Z,22.40
2019-05-25T05:23:43.747Z,22.40
2019-05-25T05:26:12.443Z,22.40
2019-05-25T05:28:41.099Z,22.40
2019-05-25T05:31:22.815Z,22.50
2019-05-25T05:33:40.216Z,22.40
2019-05-25T05:36:08.931Z,22.40
2019-05-25T05:38:37.563Z,22.40
2019-05-25T05:41:06.219Z,22.40
2019-05-25T05:43:34.898Z,22.40
2019-05-25T05:46:03.544Z,22.50
2019-05-25T05:48:32.275Z,22.50
2019-05-25T05:51:00.920Z,22.50
2019-05-25T05:53:29.583Z,22.50
2019-05-25T05:55:58.236Z,22.50
2019-05-25T05:58:26.875Z,22.50
2019-05-25T06:00:55.517Z,22.50
2019-05-25T06:03:24.197Z,22.60
2019-05-25T06:05:52.848Z,22.60
2019-05-25T06:08:21.504Z,22.50
2019-05-25T06:10:50.140Z,22.60
2019-05-25T06:13:18.791Z,22.60
2019-05-25T06:15:48.117Z,22.60
2019-05-25T06:18:16.757Z,22.60
2019-05-25T06:20:45.655Z,22.60
2019-05-25T06:23:14.331Z,22.60
2019-05-25T06:25:42.988Z,22.60
2019-05-25T06:28:11.699Z,22.60
2019-05-25T06:30:40.653Z,22.60
2019-05-25T06:33:09.346Z,22.60
2019-05-25T06:35:38.027Z,22.60
2019-05-25T06:38:06.692Z,22.60
2019-05-25T06:40:35.347Z,22.60
2019-05-25T06:43:04.088Z,22.60
2019-05-25T06:45:32.729Z,22.60
2019-05-25T06:48:01.427Z,22.60
2019-05-25T06:50:30.130Z,22.60
2019-05-25T06:52:58.819Z,22.60
2019-05-25T06:55:27.450Z,22.60
2019-05-25T06:57:56.111Z,22.60
2019-05-25T07:00:24.967Z,22.60
2019-05-25T07:02:53.896Z,22.50
2019-05-25T07:05:22.534Z,22.60
2019-05-25T07:07:54.398Z,22.60
2019-05-25T07:10:21.808Z,22.60
2019-05-25T07:12:50.489Z,22.60
2019-05-25T07:15:19.956Z,22.60
2019-05-25T07:17:48.626Z,22.60
2019-05-25T07:20:17.292Z,22.60
2019-05-25T07:22:46.022Z,22.60
2019-05-25T07:25:14.740Z,22.60
2019-05-25T07:27:58.129Z,22.60
2019-05-25T07:30:13.776Z,22.60
2019-05-25T07:32:42.416Z,22.60
2019-05-25T07:35:11.792Z,22.60
2019-05-25T07:37:40.427Z,22.60
2019-05-25T07:40:09.167Z,22.60
2019-05-25T07:42:37.906Z,22.60
2019-05-25T07:45:06.619Z,22.60
2019-05-25T07:47:35.383Z,22.60
2019-05-25T07:50:04.736Z,22.60
2019-05-25T07:52:33.440Z,22.60
2019-05-25T07:55:02.092Z,22.60
2019-05-25T07:57:30.746Z,22.60
2019-05-25T07:59:59.465Z,22.60
2019-05-25T08:02:28.195Z,22.60
2019-05-25T08:04:56.874Z,22.60
2019-05-25T08:07:25.523Z,22.60
2019-05-25T08:09:54.167Z,22.60
2019-05-25T08:12:22.849Z,22.60
2019-05-25T08:14:51.505Z,22.60
2019-05-25T08:17:20.140Z,22.60
2019-05-25T08:19:48.794Z,22.60
2019-05-25T08:22:17.455Z,22.60
2019-05-25T08:24:46.118Z,22.60
2019-05-25T08:27:14.987Z,22.60
2019-05-25T08:29:43.665Z,22.60
2019-05-25T08:32:12.826Z,22.60
2019-05-25T08:34:41.475Z,22.60
2019-05-25T08:37:10.212Z,22.60
2019-05-25T08:39:38.838Z,22.60
2019-05-25T08:42:07.524Z,22.60
2019-05-25T08:44:36.187Z,22.60
2019-05-25T08:47:04.841Z,22.60
2019-05-25T08:49:33.516Z,22.60
2019-05-25T08:52:04.172Z,22.60
2019-05-25T08:54:32.581Z,22.60
2019-05-25T08:57:01.259Z,22.60
2019-05-25T08:59:29.917Z,22.60
2019-05-25T09:01:58.616Z,22.60
2019-05-25T09:04:27.283Z,22.60
2019-05-25T09:06:55.967Z,22.60
2019-05-25T09:09:24.651Z,22.60
2019-05-25T09:11:53.341Z,22.60
2019-05-25T09:14:22.004Z,22.70
2019-05-25T09:16:50.959Z,22.60
2019-05-25T09:19:20.414Z,22.60
2019-05-25T09:22:02.007Z,22.70
2019-05-25T09:24:20.106Z,22.60
2019-05-25T09:26:48.771Z,22.70
2019-05-25T09:29:17.404Z,22.60
2019-05-25T09:31:46.053Z,22.70
2019-05-25T09:34:14.715Z,22.70
2019-05-25T09:36:43.384Z,22.60
2019-05-25T09:39:12.039Z,22.70
2019-05-25T09:41:40.706Z,22.60
2019-05-25T09:44:09.375Z,22.60
2019-05-25T09:46:38.057Z,22.70
2019-05-25T09:49:06.796Z,22.70
2019-05-25T09:51:35.458Z,22.70
2019-05-25T09:54:04.148Z,22.70
2019-05-25T09:56:32.808Z,22.70
2019-05-25T09:59:01.436Z,22.70
2019-05-25T10:01:30.093Z,22.70
2019-05-25T10:03:58.802Z,22.70
2019-05-25T10:06:27.474Z,22.70
2019-05-25T10:08:56.115Z,22.70
2019-05-25T10:11:24.795Z,22.70
2019-05-25T10:13:53.441Z,22.70
2019-05-25T10:16:22.100Z,22.70
2019-05-25T10:18:50.806Z,22.80
2019-05-25T10:21:19.469Z,22.70
2019-05-25T10:23:48.143Z,22.80
2019-05-25T10:26:16.807Z,22.80
2019-05-25T10:28:45.453Z,22.80
2019-05-25T10:31:14.093Z,22.80
2019-05-25T10:33:42.787Z,22.70
2019-05-25T10:36:11.542Z,22.80
2019-05-25T10:38:40.278Z,22.80
2019-05-25T10:41:08.918Z,22.80
2019-05-25T10:43:37.558Z,22.80
2019-05-25T10:46:06.239Z,22.80
2019-05-25T10:48:35.567Z,22.80
2019-05-25T10:51:04.249Z,22.80
2019-05-25T10:53:32.902Z,22.80
2019-05-25T10:56:01.551Z,22.80
2019-05-25T10:58:30.457Z,22.90
2019-05-25T11:00:59.097Z,22.90
2019-05-25T11:03:27.843Z,22.80
2019-05-25T11:05:56.735Z,22.90
2019-05-25T11:08:25.391Z,22.80
2019-05-25T11:10:54.051Z,22.90
2019-05-25T11:13:22.684Z,22.90
2019-05-25T11:15:51.350Z,22.90
2019-05-25T11:18:20.006Z,22.90
2019-05-25T11:20:48.665Z,22.90
2019-05-25T11:23:17.311Z,22.90
2019-05-25T11:25:45.954Z,22.90
2019-05-25T11:28:14.592Z,22.90
2019-05-25T11:30:43.339Z,22.90
2019-05-25T11:33:12.009Z,22.90
2019-05-25T11:35:40.692Z,22.90
2019-05-25T11:38:09.379Z,22.90
2019-05-25T11:40:38.104Z,22.90
2019-05-25T11:43:06.758Z,22.90
2019-05-25T11:45:35.414Z,22.90
2019-05-25T11:48:04.086Z,22.90
2019-05-25T11:50:32.754Z,22.90
2019-05-25T11:53:05.540Z,22.90
2019-05-25T11:55:31.882Z,22.90
2019-05-25T11:58:00.544Z,22.90
2019-05-25T12:00:29.414Z,22.90
2019-05-25T12:02:58.096Z,22.90
2019-05-25T12:05:26.758Z,22.90
2019-05-25T12:07:55.405Z,22.90
2019-05-25T12:10:24.370Z,22.90
2019-05-25T12:12:53.012Z,22.90
2019-05-25T12:15:21.676Z,22.90
2019-05-25T12:17:50.500Z,22.90
2019-05-25T12:20:19.177Z,22.90
2019-05-25T12:22:48.133Z,22.90
2019-05-25T12:25:16.787Z,22.90
2019-05-25T12:27:48.851Z,22.90
2019-05-25T12:30:15.810Z,22.90
2019-05-25T12:32:44.442Z,22.90
2019-05-25T12:35:13.119Z,22.90
2019-05-25T12:37:41.803Z,22.90
2019-05-25T12:40:10.503Z,22.90
2019-05-25T12:42:39.479Z,22.90
2019-05-25T12:45:08.153Z,22.90
2019-05-25T12:47:36.803Z,22.90
2019-05-25T12:50:05.768Z,22.90
2019-05-25T12:52:34.436Z,22.90
2019-05-25T12:55:03.107Z,22.90
2019-05-25T12:57:31.764Z,22.90
2019-05-25T13:00:14.311Z,22.90
2019-05-25T13:02:30.847Z,22.90
2019-05-25T13:04:59.533Z,22.90
2019-05-25T13:07:28.264Z,22.90
2019-05-25T13:09:56.927Z,22.90
2019-05-25T13:12:25.572Z,23.00
2019-05-25T13:14:54.228Z,22.90
2019-05-25T13:17:22.880Z,23.00
2019-05-25T13:19:51.579Z,22.90
2019-05-25T13:22:20.246Z,23.00
2019-05-25T13:24:48.922Z,23.00
2019-05-25T13:27:17.646Z,23.00
2019-05-25T13:29:46.369Z,23.00
2019-05-25T13:32:15.244Z,23.00
2019-05-25T13:34:44.907Z,23.00
2019-05-25T13:37:13.547Z,23.00
2019-05-25T13:39:42.216Z,23.00
2019-05-25T13:42:10.866Z,23.00
2019-05-25T13:44:39.500Z,23.00
2019-05-25T13:47:08.171Z,23.00
2019-05-25T13:49:36.827Z,23.00
2019-05-25T13:52:05.542Z,23.00
2019-05-25T13:54:34.748Z,23.10
2019-05-25T13:57:03.428Z,23.00
2019-05-25T13:59:32.092Z,23.00
2019-05-25T14:02:00.739Z,23.00
2019-05-25T14:04:29.409Z,23.00
2019-05-25T14:06:58.050Z,23.10
2019-05-25T14:09:27.246Z,23.00
2019-05-25T14:11:55.891Z,23.00
2019-05-25T14:14:24.781Z,23.00
2019-05-25T14:16:54.008Z,23.10
2019-05-25T14:19:22.650Z,23.00
2019-05-25T14:21:51.401Z,23.10
2019-05-25T14:24:20.502Z,23.10
2019-05-25T14:26:49.224Z,23.10
2019-05-25T14:29:17.898Z,23.00
2019-05-25T14:31:46.564Z,23.10
2019-05-25T14:34:15.297Z,23.00
2019-05-25T14:36:43.954Z,23.10
2019-05-25T14:39:12.626Z,23.10
2019-05-25T14:41:41.278Z,23.00
2019-05-25T14:44:09.925Z,23.10
2019-05-25T14:46:39.286Z,23.10
2019-05-25T14:49:07.952Z,23.10
2019-05-25T14:51:36.617Z,23.10
2019-05-25T14:54:05.289Z,23.10
2019-05-25T14:56:34.117Z,23.10
2019-05-25T14:59:02.963Z,23.10
2019-05-25T15:01:31.693Z,23.10
2019-05-25T15:04:00.339Z,23.10
2019-05-25T15:06:29.015Z,23.10
2019-05-25T15:08:57.667Z,23.10
2019-05-25T15:11:26.333Z,23.10
2019-05-25T15:13:55.063Z,23.10
2019-05-25T15:16:23.733Z,23.10
2019-05-25T15:18:52.385Z,23.10
2019-05-25T15:21:21.077Z,23.20
2019-05-25T15:23:49.815Z,23.10
2019-05-25T15:26:18.470Z,23.20
2019-05-25T15:28:47.140Z,23.10
2019-05-25T15:31:15.783Z,23.20
2019-05-25T15:33:44.429Z,23.20
2019-05-25T15:36:13.146Z,23.10
2019-05-25T15:38:41.946Z,23.20
2019-05-25T15:41:10.675Z,23.20
2019-05-25T15:43:39.383Z,23.20
2019-05-25T15:46:08.048Z,23.20
2019-05-25T15:48:36.703Z,23.20
2019-05-25T15:51:05.393Z,23.20
2019-05-25T15:53:34.073Z,23.20
2019-05-25T15:56:02.972Z,23.20
2019-05-25T15:58:31.766Z,23.20
2019-05-25T16:01:00.403Z,23.20
2019-05-25T16:03:29.074Z,23.20
2019-05-25T16:05:57.711Z,23.20
2019-05-25T16:08:26.370Z,23.20
2019-05-25T16:10:55.020Z,23.20
2019-05-25T16:13:23.654Z,23.20
2019-05-25T16:15:52.367Z,23.20
2019-05-25T16:18:21.024Z,23.20
2019-05-25T16:20:49.703Z,23.20
2019-05-25T16:23:18.352Z,23.30
2019-05-25T16:25:47.024Z,23.30
2019-05-25T16:28:15.656Z,23.20
2019-05-25T16:30:44.312Z,23.30
2019-05-25T16:33:14.570Z,23.30
2019-05-25T16:35:43.477Z,23.30
2019-05-25T16:38:12.262Z,23.30
2019-05-25T16:40:41.077Z,23.30
2019-05-25T16:43:09.712Z,23.30
2019-05-25T16:45:38.627Z,23.30
2019-05-25T16:48:07.332Z,23.30
2019-05-25T16:50:35.976Z,23.30
2019-05-25T16:53:04.636Z,23.30
2019-05-25T16:55:33.347Z,23.30
2019-05-25T16:58:02.043Z,23.30
2019-05-25T17:00:30.769Z,23.30
2019-05-25T17:02:59.606Z,23.30
2019-05-25T17:05:28.445Z,23.30
2019-05-25T17:07:57.524Z,23.30
2019-05-25T17:10:26.218Z,23.30
2019-05-25T17:12:54.891Z,23.30
2019-05-25T17:15:23.584Z,23.30
2019-05-25T17:17:52.293Z,23.40
2019-05-25T17:20:21.087Z,23.40
2019-05-25T17:22:49.763Z,23.40
2019-05-25T17:25:18.808Z,23.40
2019-05-25T17:27:47.513Z,23.40
2019-05-25T17:30:16.154Z,23.40
2019-05-25T17:32:44.808Z,23.40
2019-05-25T17:35:13.461Z,23.40
2019-05-25T17:37:42.108Z,23.40
2019-05-25T17:40:10.819Z,23.40
2019-05-25T17:42:39.501Z,23.40
2019-05-25T17:45:08.753Z,23.40
2019-05-25T17:47:37.566Z,23.40
2019-05-25T17:50:06.635Z,23.40
2019-05-25T17:52:35.282Z,23.40
2019-05-25T17:55:04.789Z,23.40
2019-05-25T17:57:33.449Z,23.40
2019-05-25T18:00:02.121Z,23.50
2019-05-25T18:02:30.763Z,23.50
2019-05-25T18:04:59.406Z,23.40
2019-05-25T18:07:28.147Z,23.50
2019-05-25T18:09:56.817Z,23.60
2019-05-25T18:12:25.508Z,24.10
2019-05-25T18:14:54.202Z,24.10
2019-05-25T18:17:22.833Z,24.00
2019-05-25T18:19:51.563Z,23.90
2019-05-25T18:22:20.213Z,23.80
2019-05-25T18:24:58.024Z,23.80
2019-05-25T18:27:26.692Z,23.70
2019-05-25T18:29:55.385Z,23.70
2019-05-25T18:32:24.752Z,23.70
2019-05-25T18:34:53.420Z,23.70
2019-05-25T18:37:22.109Z,23.60
2019-05-25T18:39:50.764Z,23.60
2019-05-25T18:42:19.447Z,23.60
2019-05-25T18:44:48.980Z,23.60
2019-05-25T18:47:17.668Z,23.60
2019-05-25T18:49:46.364Z,23.60
2019-05-25T18:52:15.022Z,23.60
2019-05-25T18:54:43.666Z,23.60
2019-05-25T18:57:12.432Z,23.50
2019-05-25T18:59:41.077Z,23.50
2019-05-25T19:02:09.722Z,23.50
2019-05-25T19:04:47.492Z,23.50
2019-05-25T19:07:09.043Z,23.50
2019-05-25T19:09:37.704Z,23.50
2019-05-25T19:12:06.374Z,23.40
2019-05-25T19:14:35.023Z,23.40
2019-05-25T19:17:03.710Z,23.40
2019-05-25T19:19:32.343Z,23.40
2019-05-25T19:22:00.994Z,23.40
2019-05-25T19:24:29.675Z,23.40
2019-05-25T19:26:58.323Z,23.40
2019-05-25T19:29:27.013Z,23.30
2019-05-25T19:31:55.673Z,23.40
2019-05-25T19:34:24.307Z,23.30
2019-05-25T19:36:52.980Z,23.40
2019-05-25T19:39:21.636Z,23.30
2019-05-25T19:41:50.388Z,23.30
2019-05-25T19:44:19.460Z,23.30
2019-05-25T19:46:48.145Z,23.30
2019-05-25T19:49:16.811Z,23.30
2019-05-25T19:51:45.464Z,23.30
2019-05-25T19:54:14.113Z,23.30
2019-05-25T19:56:42.866Z,23.20
2019-05-25T19:59:11.520Z,23.20
2019-05-25T20:01:40.200Z,23.20
2019-05-25T20:04:08.854Z,23.20
2019-05-25T20:06:37.504Z,23.20
2019-05-25T20:09:06.879Z,23.20
2019-05-25T20:11:35.630Z,23.20
2019-05-25T20:14:04.291Z,23.20
2019-05-25T20:16:32.972Z,23.20
2019-05-25T20:19:01.713Z,23.20
2019-05-25T20:21:30.376Z,23.20
2019-05-25T20:23:59.021Z,23.10
2019-05-25T20:26:27.695Z,23.20
2019-05-25T20:28:56.416Z,23.10
2019-05-25T20:31:25.108Z,23.10
2019-05-25T20:33:53.946Z,23.10
2019-05-25T20:36:22.596Z,23.10
2019-05-25T20:38:51.281Z,23.10
2019-05-25T20:41:19.930Z,23.00
2019-05-25T20:43:48.564Z,23.00
2019-05-25T20:46:17.243Z,23.00
2019-05-25T20:48:45.913Z,23.10
2019-05-25T20:51:14.589Z,23.10
2019-05-25T20:53:43.256Z,23.00
2019-05-25T20:56:11.905Z,23.10
2019-05-25T20:58:40.777Z,23.00
2019-05-25T21:01:09.424Z,23.00
2019-05-25T21:03:38.061Z,23.00
2019-05-25T21:06:06.736Z,23.00
2019-05-25T21:08:35.438Z,23.00
2019-05-25T21:11:04.890Z,23.00
2019-05-25T21:13:33.558Z,22.90
2019-05-25T21:16:02.224Z,23.00
2019-05-25T21:18:30.900Z,22.90
2019-05-25T21:21:00.236Z,22.90
2019-05-25T21:23:28.920Z,22.90
2019-05-25T21:25:57.624Z,22.90
2019-05-25T21:28:26.274Z,22.90
2019-05-25T21:30:54.920Z,22.90
2019-05-25T21:33:23.646Z,22.90
2019-05-25T21:36:06.813Z,22.90
2019-05-25T21:38:22.677Z,22.90
2019-05-25T21:40:51.334Z,22.90
2019-05-25T21:43:37.883Z,22.90
2019-05-25T21:46:06.628Z,22.80
2019-05-25T21:48:35.307Z,22.90
2019-05-25T21:51:03.987Z,22.80
2019-05-25T21:53:32.635Z,22.80
2019-05-25T21:56:01.324Z,22.80
2019-05-25T21:58:30.028Z,22.80
2019-05-25T22:00:59.283Z,22.80
2019-05-25T22:03:27.932Z,22.80
2019-05-25T22:05:56.599Z,22.80
2019-05-25T22:08:25.258Z,22.80
2019-05-25T22:10:53.896Z,22.80
2019-05-25T22:13:28.457Z,22.80
2019-05-25T22:15:52.951Z,22.80
2019-05-25T22:18:21.620Z,22.70
2019-05-25T22:20:50.289Z,22.80
2019-05-25T22:23:18.923Z,22.70
2019-05-25T22:25:47.559Z,22.70
2019-05-25T22:28:16.278Z,22.70
2019-05-25T22:30:44.982Z,22.70
2019-05-25T22:33:13.683Z,22.70
2019-05-25T22:35:42.994Z,22.70
2019-05-25T22:38:11.646Z,22.70
2019-05-25T22:40:40.497Z,22.70
2019-05-25T22:43:09.122Z,22.70
2019-05-25T22:45:38.440Z,22.70
2019-05-25T22:48:07.115Z,22.70
2019-05-25T22:50:35.756Z,22.70
2019-05-25T22:53:04.401Z,22.70
2019-05-25T22:55:33.051Z,22.70
2019-05-25T22:58:01.682Z,22.60
2019-05-25T23:00:30.336Z,22.70
2019-05-25T23:02:59.106Z,22.60
2019-05-25T23:05:27.755Z,22.70
2019-05-25T23:07:56.419Z,22.60
2019-05-25T23:10:25.117Z,22.60
2019-05-25T23:12:53.793Z,22.60
2019-05-25T23:15:22.449Z,22.60
2019-05-25T23:17:51.115Z,22.60
2019-05-25T23:20:19.955Z,22.60
2019-05-25T23:22:48.595Z,22.60
2019-05-25T23:25:17.279Z,22.60
2019-05-25T23:27:45.915Z,22.60
2019-05-25T23:30:14.571Z,22.60
2019-05-25T23:32:43.313Z,22.60
2019-05-25T23:35:11.987Z,22.60
2019-05-25T23:37:40.635Z,22.60
2019-05-25T23:40:09.312Z,22.60
2019-05-25T23:42:37.963Z,22.60
2019-05-25T23:45:08.285Z,22.50
2019-05-25T23:47:36.942Z,22.50
2019-05-25T23:50:05.655Z,22.50
2019-05-25T23:52:34.342Z,22.50
2019-05-25T23:55:05.188Z,22.50
2019-05-25T23:57:33.554Z,22.50
